Time;durP1;ratioP1;P1;durP2;ratioP2;P2;SDS_P1;SDS_P2;PMS_P1;PMS_P2;Temp;Humidity;BMP_temperature;BMP_pressure;BME280_temperature;BME280_humidity;BME280_pressure;Samples;Min_cycle;Max_cycle;Signal;HPM_P1;HPM_P2
2021/03/15 00:01:28;;;;;;;35.03;24.63;;;;;;;4.06;78.55;99536.13;1763298;81;21117;-73
2021/03/15 00:03:56;;;;;;;36.95;26.52;;;;;;;4.03;78.48;99530.61;1750206;81;21441;-74
2021/03/15 00:06:24;;;;;;;36.13;25.10;;;;;;;4.05;78.40;99536.56;1760039;81;21426;-74
2021/03/15 00:08:51;;;;;;;33.02;23.55;;;;;;;4.06;78.35;99536.96;1767629;81;22428;-74
2021/03/15 00:11:19;;;;;;;33.50;23.32;;;;;;;4.05;78.26;99533.12;1752463;81;21128;-74
2021/03/15 00:13:48;;;;;;;33.85;23.25;;;;;;;4.04;78.18;99527.05;1759049;81;21237;-75
2021/03/15 00:16:17;;;;;;;40.73;27.62;;;;;;;4.05;78.14;99539.65;1766641;81;21075;-73
2021/03/15 00:18:45;;;;;;;31.27;23.80;;;;;;;4.05;78.07;99543.56;1766061;81;21164;-74
2021/03/15 00:21:13;;;;;;;35.80;25.88;;;;;;;4.05;78.00;99540.95;1763067;81;21812;-75
2021/03/15 00:23:40;;;;;;;33.10;23.38;;;;;;;4.04;77.95;99536.20;1734603;82;21187;-73
2021/03/15 00:26:07;;;;;;;36.50;26.62;;;;;;;4.05;77.90;99539.65;1736983;82;21168;-74
2021/03/15 00:28:35;;;;;;;36.33;25.52;;;;;;;4.05;77.88;99537.88;1755865;81;21160;-74
2021/03/15 00:31:04;;;;;;;35.50;26.33;;;;;;;4.06;77.83;99528.28;1722746;83;21336;-73
2021/03/15 00:33:31;;;;;;;39.25;28.38;;;;;;;4.06;77.77;99530.42;1754738;81;22518;-73
2021/03/15 00:36:03;;;;;;;35.80;26.30;;;;;;;4.07;77.73;99524.73;1759108;80;21090;-73
2021/03/15 00:38:31;;;;;;;37.65;26.82;;;;;;;4.09;77.71;99528.08;1748844;81;21165;-74
2021/03/15 00:40:59;;;;;;;39.58;27.37;;;;;;;4.09;77.65;99518.93;1734294;82;21229;-74
2021/03/15 00:43:26;;;;;;;36.53;27.35;;;;;;;4.09;77.61;99516.31;1709084;82;21139;-74
2021/03/15 00:45:55;;;;;;;35.80;27.52;;;;;;;4.09;77.57;99519.77;1708309;83;23381;-73
2021/03/15 00:48:23;;;;;;;36.10;25.50;;;;;;;4.10;77.52;99523.21;1766499;80;21186;-74
2021/03/15 00:50:52;;;;;;;36.03;26.23;;;;;;;4.09;77.46;99517.62;1763260;81;21189;-76
2021/03/15 00:53:21;;;;;;;34.98;25.90;;;;;;;4.09;77.42;99521.55;1762632;80;21636;-75
2021/03/15 00:55:48;;;;;;;36.68;26.37;;;;;;;4.08;77.40;99521.17;1762776;81;21596;-73
2021/03/15 00:58:15;;;;;;;37.17;26.77;;;;;;;4.04;77.40;99510.06;1767900;81;22563;-73
2021/03/15 01:00:47;;;;;;;41.60;28.57;;;;;;;4.02;77.39;99508.03;1765153;81;21686;-73
2021/03/15 01:03:34;;;;;;;38.38;28.17;;;;;;;4.06;77.39;99500.84;1876410;76;29584;-75
2021/03/15 01:06:02;;;;;;;37.95;26.52;;;;;;;4.02;77.35;99506.26;1828387;77;21635;-75
2021/03/15 01:08:35;;;;;;;;;;;;;;;4.03;77.34;99504.48;1826272;77;22380;-73
2021/03/15 01:11:04;;;;;;;37.55;25.70;;;;;;;4.02;77.33;99499.72;1766260;80;20815;-74
2021/03/15 01:13:32;;;;;;;36.70;27.67;;;;;;;4.00;77.29;99499.00;1771479;80;21188;-76
2021/03/15 01:16:00;;;;;;;35.45;25.17;;;;;;;3.98;77.30;99503.97;1786331;79;21134;-73
2021/03/15 01:18:29;;;;;;;33.95;25.50;;;;;;;3.96;77.28;99502.77;1764971;80;21138;-73
2021/03/15 01:20:56;;;;;;;37.45;26.40;;;;;;;3.94;77.27;99498.08;1785257;79;21909;-73
2021/03/15 01:23:24;;;;;;;37.60;26.65;;;;;;;3.92;77.26;99495.21;1785768;79;21082;-73
2021/03/15 01:25:51;;;;;;;36.68;25.45;;;;;;;3.89;77.27;99491.51;1822784;77;21148;-73
2021/03/15 01:28:19;;;;;;;37.95;25.82;;;;;;;3.87;77.29;99486.39;1813128;77;21125;-74
2021/03/15 01:30:48;;;;;;;37.35;26.23;;;;;;;3.86;77.27;99489.08;1824805;77;21098;-74
2021/03/15 01:33:15;;;;;;;37.70;26.55;;;;;;;3.84;77.27;99487.04;1756419;80;22172;-73
2021/03/15 01:35:43;;;;;;;36.03;26.52;;;;;;;3.81;77.28;99490.70;1828869;77;21454;-75
2021/03/15 01:38:11;;;;;;;39.30;26.68;;;;;;;3.77;77.30;99487.93;1817205;77;21081;-73
2021/03/15 01:40:40;;;;;;;40.25;27.45;;;;;;;3.76;77.32;99484.09;1810061;77;21139;-74
2021/03/15 01:43:08;;;;;;;51.68;32.70;;;;;;;3.73;77.33;99481.22;1780494;79;21131;-73
2021/03/15 01:45:36;;;;;;;54.00;34.83;;;;;;;3.68;77.35;99483.30;1795790;79;22064;-74
2021/03/15 01:48:06;;;;;;;51.77;32.73;;;;;;;3.66;77.41;99481.23;1792221;79;21169;-73
2021/03/15 01:50:33;;;;;;;44.00;29.75;;;;;;;3.63;77.47;99482.28;1744408;81;21055;-74
2021/03/15 01:53:01;;;;;;;47.78;33.28;;;;;;;3.62;77.52;99480.61;1799733;79;21496;-75
2021/03/15 01:55:29;;;;;;;48.55;34.40;;;;;;;3.62;77.59;99476.70;1794299;79;21138;-73
2021/03/15 01:57:56;;;;;;;48.40;33.60;;;;;;;3.64;77.65;99477.89;1801292;79;22870;-73
2021/03/15 02:00:24;;;;;;;52.08;36.95;;;;;;;3.65;77.68;99473.04;1749167;81;21089;-74
2021/03/15 02:02:58;;;;;;;52.80;36.85;;;;;;;3.66;77.71;99476.85;1798803;79;21184;-74
2021/03/15 02:05:36;;;;;;;53.63;36.25;;;;;;;3.66;77.71;99470.33;1796531;79;21161;-73
2021/03/15 02:08:04;;;;;;;49.00;34.98;;;;;;;3.68;77.75;99468.95;1793648;79;21505;-73
2021/03/15 02:10:33;;;;;;;50.70;34.60;;;;;;;3.67;77.75;99464.19;1796083;79;22499;-73
2021/03/15 02:13:28;;;;;;;46.18;32.88;;;;;;;3.68;77.76;99466.33;1793454;79;21121;-72
2021/03/15 02:16:24;;;;;;;46.80;33.30;;;;;;;3.67;77.77;99462.89;1793245;79;21434;-73
2021/03/15 02:19:38;;;;;;;45.52;32.38;;;;;;;3.68;77.79;99465.86;1796444;79;21492;-71
2021/03/15 02:22:39;;;;;;;49.10;33.97;;;;;;;3.68;77.79;99471.09;1795119;79;21122;-72
2021/03/15 02:25:28;;;;;;;45.40;32.83;;;;;;;3.67;77.82;99472.03;1806155;79;22571;-73
2021/03/15 02:28:17;;;;;;;43.15;30.55;;;;;;;3.68;77.82;99470.25;1792969;79;21054;-73
2021/03/15 02:31:12;;;;;;;46.68;32.28;;;;;;;3.68;77.82;99476.78;1792159;79;21061;-73
2021/03/15 02:33:57;;;;;;;47.98;32.85;;;;;;;3.70;77.82;99472.28;1800393;79;21683;-72
2021/03/15 02:36:25;;;;;;;54.58;32.60;;;;;;;3.71;77.84;99475.27;1789531;79;21185;-73
2021/03/15 02:38:53;;;;;;;50.38;33.30;;;;;;;3.71;77.81;99475.27;1738765;80;22909;-71
2021/03/15 02:41:20;;;;;;;64.87;37.38;;;;;;;3.73;77.82;99479.91;1771402;79;21180;-73
2021/03/15 02:43:51;;;;;;;59.18;36.60;;;;;;;3.73;77.84;99480.75;1767308;79;21184;-73
2021/03/15 02:46:23;;;;;;;59.55;36.23;;;;;;;3.75;77.83;99480.64;1800500;79;21437;-73
2021/03/15 02:48:54;;;;;;;109.95;71.47;;;;;;;3.75;77.83;99484.55;1799796;79;21391;-73
2021/03/15 02:51:24;;;;;;;69.32;45.05;;;;;;;3.76;77.85;99485.39;1791019;79;22143;-74
2021/03/15 02:53:51;;;;;;;59.33;37.78;;;;;;;3.75;77.85;99483.25;1787003;79;21492;-72
2021/03/15 02:56:25;;;;;;;54.20;34.63;;;;;;;3.75;77.87;99491.09;1793608;79;21133;-72
2021/03/15 02:58:54;;;;;;;50.05;35.23;;;;;;;3.77;77.95;99489.70;1794937;79;21047;-72
2021/03/15 03:01:23;;;;;;;49.38;32.10;;;;;;;3.79;77.98;99492.58;1787448;79;21066;-73
2021/03/15 03:03:53;;;;;;;52.05;34.78;;;;;;;3.81;78.00;99497.23;1781647;79;22063;-72
2021/03/15 03:06:23;;;;;;;61.80;39.65;;;;;;;3.81;78.04;99499.84;1801552;79;21054;-74
2021/03/15 03:08:52;;;;;;;51.10;36.33;;;;;;;3.83;78.08;99499.27;1794132;79;21062;-74
2021/03/15 03:11:21;;;;;;;47.90;33.48;;;;;;;3.85;78.09;99496.55;1797464;79;21118;-73
2021/03/15 03:13:50;;;;;;;42.48;30.75;;;;;;;3.87;78.11;99499.45;1792343;79;21422;-73
2021/03/15 03:16:19;;;;;;;48.98;34.65;;;;;;;3.88;78.11;99499.81;1795004;79;22054;-73
2021/03/15 03:18:52;;;;;;;43.98;30.52;;;;;;;3.90;78.13;99497.09;1790360;79;21257;-74
2021/03/15 03:21:23;;;;;;;44.75;32.25;;;;;;;3.91;78.14;99498.77;1790166;79;21184;-73
2021/03/15 03:23:55;;;;;;;44.23;30.65;;;;;;;3.91;78.12;99497.46;1787820;79;21098;-74
2021/03/15 03:26:27;;;;;;;48.17;34.10;;;;;;;3.91;78.14;99498.30;1769105;79;21069;-74
2021/03/15 03:28:55;;;;;;;48.20;35.28;;;;;;;3.92;78.14;99499.97;1798052;79;22057;-74
2021/03/15 03:31:26;;;;;;;51.37;37.45;;;;;;;3.93;78.12;99499.02;1783838;79;21169;-75
2021/03/15 03:33:54;;;;;;;47.43;33.10;;;;;;;3.95;78.13;99496.30;1796427;79;21043;-73
2021/03/15 03:36:21;;;;;;;51.00;35.65;;;;;;;3.95;78.14;99504.98;1793851;79;21054;-73
2021/03/15 03:38:49;;;;;;;42.15;30.37;;;;;;;3.96;78.14;99500.63;1796995;79;21134;-74
2021/03/15 03:41:16;;;;;;;47.23;33.40;;;;;;;3.95;78.15;99502.37;1797015;79;22565;-73
2021/03/15 03:43:46;;;;;;;47.58;33.05;;;;;;;3.93;78.17;99509.95;1805225;79;21213;-74
2021/03/15 03:46:14;;;;;;;46.20;32.28;;;;;;;3.91;78.21;99497.46;1801239;79;21121;-73
2021/03/15 03:48:42;;;;;;;44.20;31.15;;;;;;;3.90;78.29;99497.09;1810764;79;21061;-74
2021/03/15 03:51:09;;;;;;;45.92;32.88;;;;;;;3.88;78.35;99504.20;1800678;79;21541;-74
2021/03/15 03:53:49;;;;;;;45.52;32.10;;;;;;;3.86;78.45;99505.61;1773542;79;21887;-73
2021/03/15 03:56:37;;;;;;;48.02;32.83;;;;;;;3.84;78.53;99500.94;1793050;79;21639;-74
2021/03/15 03:59:04;;;;;;;40.67;28.50;;;;;;;3.83;78.60;99505.80;1744956;80;21137;-73
2021/03/15 04:01:44;;;;;;;45.85;31.93;;;;;;;3.82;78.71;99506.73;1779786;79;21173;-75
2021/03/15 04:04:19;;;;;;;48.10;33.83;;;;;;;3.83;78.80;99514.94;1795629;79;21126;-74
2021/03/15 04:06:49;;;;;;;44.13;31.87;;;;;;;3.82;78.91;99509.81;1793845;79;22051;-74
2021/03/15 04:09:20;;;;;;;46.70;31.48;;;;;;;3.83;78.98;99513.63;1785818;79;21220;-73
2021/03/15 04:11:49;;;;;;;47.60;30.95;;;;;;;3.83;79.08;99510.18;1793875;78;21129;-74
2021/03/15 04:14:19;;;;;;;46.33;32.42;;;;;;;3.82;79.14;99510.66;1790400;79;21169;-74
2021/03/15 04:16:47;;;;;;;48.63;32.93;;;;;;;3.84;79.23;99509.24;1806212;79;21161;-74
2021/03/15 04:19:15;;;;;;;49.38;32.60;;;;;;;3.84;79.33;99514.47;1792941;79;21752;-74
2021/03/15 04:21:42;;;;;;;51.20;33.45;;;;;;;3.85;79.40;99507.00;1788850;79;21501;-73
2021/03/15 04:24:09;;;;;;;50.43;35.52;;;;;;;3.86;79.45;99505.61;1799472;79;21165;-73
2021/03/15 04:26:38;;;;;;;52.80;35.20;;;;;;;3.86;79.50;99509.97;1801363;79;21102;-74
2021/03/15 04:29:06;;;;;;;51.35;35.10;;;;;;;3.84;79.59;99498.32;1801861;79;21149;-74
2021/03/15 04:31:34;;;;;;;48.87;33.23;;;;;;;3.85;79.67;99507.83;1800553;79;23048;-72
2021/03/15 04:34:02;;;;;;;49.67;33.38;;;;;;;3.85;79.74;99506.52;1771927;79;21193;-74
2021/03/15 04:36:30;;;;;;;47.05;32.10;;;;;;;3.86;79.79;99504.75;1797323;79;21109;-73
2021/03/15 04:38:58;;;;;;;50.12;31.68;;;;;;;3.87;79.82;99507.76;1749506;81;21141;-74
2021/03/15 04:41:25;;;;;;;48.05;32.78;;;;;;;3.88;79.87;99507.65;1801985;79;21173;-75
2021/03/15 04:43:53;;;;;;;46.15;31.33;;;;;;;3.89;79.91;99509.80;1793429;79;21497;-74
2021/03/15 04:46:21;;;;;;;42.43;28.38;;;;;;;3.87;79.94;99509.90;1799289;79;21114;-74
2021/03/15 04:48:48;;;;;;;49.85;32.20;;;;;;;3.86;80.03;99504.31;1786069;79;21098;-75
2021/03/15 04:51:18;;;;;;;47.70;31.42;;;;;;;3.87;80.10;99501.23;1778367;79;21063;-74
2021/03/15 04:53:45;;;;;;;49.40;31.73;;;;;;;3.86;80.19;99502.13;1795287;79;21050;-74
2021/03/15 04:56:16;;;;;;;50.73;33.45;;;;;;;3.86;80.25;99496.91;1796278;78;23184;-74
2021/03/15 04:58:48;;;;;;;55.52;33.65;;;;;;;3.86;80.32;99501.70;1777878;79;21070;-74
2021/03/15 05:01:16;;;;;;;52.13;34.08;;;;;;;3.86;80.41;99500.39;1793313;79;21070;-74
2021/03/15 05:03:43;;;;;;;53.90;33.45;;;;;;;3.86;80.48;99504.75;1808912;79;21066;-73
2021/03/15 05:06:12;;;;;;;52.45;31.97;;;;;;;3.87;80.58;99511.67;1775396;79;21109;-74
2021/03/15 05:08:47;;;;;;;59.10;36.30;;;;;;;3.85;80.70;99510.44;1809319;79;22061;-73
2021/03/15 05:11:16;;;;;;;47.73;29.07;;;;;;;3.83;80.78;99509.71;1800804;79;21510;-77
2021/03/15 05:13:44;;;;;;;58.02;34.30;;;;;;;3.83;80.89;99521.94;1770626;79;21096;-74
2021/03/15 05:16:13;;;;;;;50.98;30.15;;;;;;;3.81;81.03;99518.13;1794989;79;21065;-77
2021/03/15 05:18:40;;;;;;;48.13;30.15;;;;;;;3.82;81.12;99511.95;1785981;79;20990;-75
2021/03/15 05:21:08;;;;;;;62.50;37.05;;;;;;;3.80;81.20;99504.70;1802181;79;22441;-74
2021/03/15 05:23:35;;;;;;;63.48;35.43;;;;;;;3.81;81.28;99502.45;1807576;79;21066;-74
2021/03/15 05:26:03;;;;;;;63.23;36.77;;;;;;;3.85;81.36;99506.52;1745695;79;21073;-74
2021/03/15 05:28:31;;;;;;;60.78;35.38;;;;;;;3.87;81.40;99511.67;1805263;79;21113;-75
2021/03/15 05:31:03;;;;;;;54.45;32.23;;;;;;;3.89;81.47;99519.77;1754144;79;21146;-73
2021/03/15 05:33:33;;;;;;;63.33;37.10;;;;;;;3.89;81.52;99517.16;1784227;79;22019;-74
2021/03/15 05:36:00;;;;;;;64.72;37.70;;;;;;;3.89;81.57;99518.47;1788149;79;21157;-72
2021/03/15 05:38:28;;;;;;;69.95;42.73;;;;;;;3.90;81.64;99516.22;1796540;79;21396;-75
2021/03/15 05:40:56;;;;;;;61.75;37.23;;;;;;;3.93;81.68;99511.25;1784289;79;21460;-72
2021/03/15 05:43:34;;;;;;;59.13;36.38;;;;;;;3.96;81.72;99521.05;1789236;79;21118;-71
2021/03/15 05:46:50;;;;;;;53.50;33.00;;;;;;;3.98;81.76;99520.47;1787170;79;22750;-71
2021/03/15 05:49:43;;;;;;;51.25;29.70;;;;;;;3.99;81.82;99524.76;1796490;79;21102;-71
2021/03/15 05:52:44;;;;;;;55.20;34.40;;;;;;;4.00;81.88;99526.90;1795401;79;21084;-71
2021/03/15 05:55:51;;;;;;;64.92;39.40;;;;;;;4.02;81.94;99522.41;1785742;79;21486;-71
2021/03/15 05:58:50;;;;;;;51.18;30.70;;;;;;;4.03;81.94;99528.00;1795645;79;21193;-71
2021/03/15 06:01:38;;;;;;;64.35;38.92;;;;;;;4.05;81.99;99531.34;1792157;79;24202;-71
2021/03/15 06:04:23;;;;;;;64.55;39.92;;;;;;;4.07;82.05;99524.26;1749712;80;21078;-72
2021/03/15 06:06:51;;;;;;;60.45;36.55;;;;;;;4.09;82.08;99524.98;1797025;79;21054;-71
2021/03/15 06:09:20;;;;;;;69.25;39.95;;;;;;;4.11;82.10;99527.02;1811481;79;21113;-71
2021/03/15 06:12:01;;;;;;;65.15;42.10;;;;;;;4.13;82.10;99526.45;1800711;79;21134;-72
2021/03/15 06:14:29;;;;;;;67.97;40.17;;;;;;;4.15;82.12;99528.52;1781270;79;22070;-72
2021/03/15 06:16:57;;;;;;;72.47;45.70;;;;;;;4.19;82.15;99535.20;1799516;79;21157;-72
2021/03/15 06:19:27;;;;;;;71.85;42.48;;;;;;;4.21;82.14;99531.17;1795586;79;21188;-72
2021/03/15 06:21:55;;;;;;;86.45;49.23;;;;;;;4.23;82.14;99529.28;1757987;79;21070;-73
2021/03/15 06:24:23;;;;;;;82.57;48.08;;;;;;;4.26;82.13;99533.02;1786387;79;21062;-73
2021/03/15 06:26:51;;;;;;;71.28;41.05;;;;;;;4.29;82.10;99531.03;1760694;81;22734;-72
2021/03/15 06:29:18;;;;;;;86.35;46.53;;;;;;;4.34;82.11;99533.32;1724976;83;21176;-73
2021/03/15 06:31:49;;;;;;;89.10;49.42;;;;;;;4.37;82.06;99522.68;1723210;83;21013;-74
2021/03/15 06:34:19;;;;;;;73.42;41.40;;;;;;;4.41;82.05;99525.91;1729323;82;21159;-74
2021/03/15 06:36:48;;;;;;;71.28;42.78;;;;;;;4.45;82.02;99520.39;1719194;82;21117;-74
2021/03/15 06:39:16;;;;;;;56.20;35.00;;;;;;;4.48;81.99;99526.71;1725793;83;21904;-73
2021/03/15 06:41:43;;;;;;;55.75;34.03;;;;;;;4.51;81.94;99526.49;1718809;81;21142;-74
2021/03/15 06:44:12;;;;;;;67.37;42.27;;;;;;;4.52;81.87;99528.63;1731725;81;21065;-73
2021/03/15 06:46:41;;;;;;;59.85;35.38;;;;;;;4.52;81.84;99528.16;1701708;84;21212;-74
2021/03/15 06:49:10;;;;;;;85.30;52.48;;;;;;;4.53;81.83;99527.69;1727881;83;21133;-73
2021/03/15 06:52:03;;;;;;;69.30;40.08;;;;;;;4.53;81.80;99528.52;1730404;83;21916;-73
2021/03/15 06:54:31;;;;;;;78.60;42.90;;;;;;;4.52;81.78;99529.94;1725759;83;21132;-73
2021/03/15 06:57:21;;;;;;;82.25;42.08;;;;;;;4.52;81.75;99530.78;1740775;81;21178;-74
2021/03/15 06:59:54;;;;;;;81.97;44.85;;;;;;;4.54;81.70;99532.01;1704123;81;21140;-72
2021/03/15 07:02:29;;;;;;;91.42;46.05;;;;;;;4.55;81.69;99526.67;1741708;81;21098;-72
2021/03/15 07:05:11;;;;;;;81.35;42.50;;;;;;;4.58;81.69;99532.16;1752859;81;22076;-72
2021/03/15 07:07:51;;;;;;;89.30;49.38;;;;;;;4.62;81.68;99532.30;1711325;83;21210;-74
2021/03/15 07:10:33;;;;;;;86.67;46.30;;;;;;;4.66;81.62;99535.56;1721433;83;21136;-74
2021/03/15 07:13:13;;;;;;;76.70;44.73;;;;;;;4.70;81.59;99530.47;1724189;83;21144;-75
2021/03/15 07:15:50;;;;;;;85.10;45.23;;;;;;;4.77;81.59;99526.50;1702515;83;20926;-72
2021/03/15 07:18:23;;;;;;;87.20;47.10;;;;;;;4.82;81.52;99528.31;1721100;83;22094;-73
2021/03/15 07:20:55;;;;;;;90.15;49.00;;;;;;;4.85;81.44;99525.03;1717467;83;24071;-71
2021/03/15 07:23:50;;;;;;;79.85;45.20;;;;;;;4.87;81.37;99518.38;1721302;83;21090;-71
2021/03/15 07:26:23;;;;;;;92.80;48.75;;;;;;;4.89;81.33;99510.78;1732670;82;21407;-73
2021/03/15 07:28:51;;;;;;;88.58;47.08;;;;;;;4.93;81.27;99518.44;1727879;83;21445;-72
2021/03/15 07:31:29;;;;;;;98.52;51.48;;;;;;;4.96;81.21;99514.28;1717451;83;22519;-73
2021/03/15 07:34:03;;;;;;;100.33;48.42;;;;;;;4.97;81.17;99514.17;1703864;83;21176;-72
2021/03/15 07:36:32;;;;;;;95.25;49.67;;;;;;;5.02;81.11;99516.02;1722517;83;21584;-72
2021/03/15 07:39:09;;;;;;;99.62;49.70;;;;;;;5.02;81.03;99510.78;1671924;85;21160;-72
2021/03/15 07:41:40;;;;;;;94.22;45.38;;;;;;;5.03;81.00;99505.07;1688085;84;21128;-73
2021/03/15 07:44:18;;;;;;;96.32;48.40;;;;;;;5.05;81.00;99506.63;1699287;83;22067;-75
2021/03/15 07:46:59;;;;;;;100.47;49.60;;;;;;;5.08;80.96;99506.40;1699412;83;21157;-74
2021/03/15 07:49:32;;;;;;;96.90;53.83;;;;;;;5.13;80.95;99505.62;1690096;83;21201;-73
2021/03/15 07:52:04;;;;;;;99.42;51.58;;;;;;;5.19;80.87;99512.19;1689578;83;21218;-74
2021/03/15 07:54:36;;;;;;;100.90;52.23;;;;;;;5.18;80.79;99512.66;1674601;83;21158;-73
2021/03/15 07:57:24;;;;;;;106.85;55.38;;;;;;;5.21;80.74;99515.55;1684617;83;22076;-74
2021/03/15 07:59:58;;;;;;;97.88;49.27;;;;;;;5.23;80.68;99514.97;1687320;83;21197;-72
2021/03/15 08:02:28;;;;;;;102.78;49.00;;;;;;;5.25;80.60;99512.23;1688057;83;21096;-73
2021/03/15 08:04:58;;;;;;;91.25;45.40;;;;;;;5.24;80.49;99512.70;1688576;83;21090;-74
2021/03/15 08:07:27;;;;;;;95.45;48.25;;;;;;;5.22;80.50;99511.16;1685706;82;21173;-73
2021/03/15 08:09:57;;;;;;;94.42;46.92;;;;;;;5.25;80.49;99507.00;1742243;82;21807;-72
2021/03/15 08:12:30;;;;;;;83.27;42.17;;;;;;;5.28;80.50;99505.46;1723671;82;21086;-72
2021/03/15 08:15:10;;;;;;;80.87;41.98;;;;;;;5.30;80.46;99509.63;1800291;79;21165;-71
2021/03/15 08:17:45;;;;;;;81.25;44.20;;;;;;;5.30;80.42;99503.09;1799700;79;21145;-72
2021/03/15 08:20:20;;;;;;;61.45;36.03;;;;;;;5.37;80.42;99500.88;1859317;75;29048;-72
2021/03/15 08:22:50;;;;;;;72.82;38.88;;;;;;;5.37;80.37;99505.64;1808615;78;21357;-71
2021/03/15 08:25:18;;;;;;;64.15;37.73;;;;;;;5.36;80.28;99503.13;1823549;78;22046;-71
2021/03/15 08:27:49;;;;;;;55.28;33.10;;;;;;;5.36;80.23;99504.45;1809870;78;21559;-72
2021/03/15 08:30:26;;;;;;;55.10;32.45;;;;;;;5.35;79.99;99511.94;1818190;78;21043;-72
2021/03/15 08:32:54;;;;;;;54.23;30.70;;;;;;;5.33;79.80;99515.15;1813048;78;21100;-72
2021/03/15 08:35:22;;;;;;;55.70;32.13;;;;;;;5.32;79.63;99516.09;1832934;78;21134;-71
2021/03/15 08:37:56;;;;;;;52.88;30.00;;;;;;;5.33;79.56;99515.15;1812335;78;21888;-72
2021/03/15 08:40:44;;;;;;;49.38;30.68;;;;;;;5.36;79.38;99513.61;1812630;77;21166;-75
2021/03/15 08:43:25;;;;;;;57.80;33.13;;;;;;;5.30;79.14;99514.88;1779530;79;21143;-75
2021/03/15 08:46:15;;;;;;;53.33;31.23;;;;;;;5.28;79.08;99522.48;1798631;79;21203;-71
2021/03/15 08:48:52;;;;;;;57.50;32.20;;;;;;;5.29;78.96;99526.29;1781795;78;21174;-72
2021/03/15 08:51:38;;;;;;;54.60;30.80;;;;;;;5.24;78.75;99520.56;1802617;78;23032;-73
2021/03/15 08:54:07;;;;;;;53.17;30.70;;;;;;;5.20;78.69;99522.18;1766809;79;21185;-71
2021/03/15 08:56:37;;;;;;;51.65;30.45;;;;;;;5.15;78.60;99511.58;1752946;79;21534;-75
2021/03/15 08:59:11;;;;;;;50.23;31.77;;;;;;;5.09;78.50;99513.78;1785502;79;21179;-72
2021/03/15 09:01:52;;;;;;;55.50;33.70;;;;;;;5.07;78.57;99511.27;1772094;79;21127;-73
2021/03/15 09:04:33;;;;;;;60.90;34.00;;;;;;;5.08;78.59;99515.56;1804382;79;22052;-74
2021/03/15 09:07:04;;;;;;;54.55;33.55;;;;;;;5.13;78.67;99522.63;1774259;79;21151;-72
2021/03/15 09:09:34;;;;;;;61.33;34.80;;;;;;;5.17;78.67;99523.24;1731344;79;21180;-74
2021/03/15 09:12:04;;;;;;;57.85;34.53;;;;;;;5.23;78.67;99518.89;1796272;79;21154;-73
2021/03/15 09:14:34;;;;;;;53.40;33.42;;;;;;;5.30;78.66;99518.80;1794156;79;21225;-73
2021/03/15 09:17:17;;;;;;;61.90;33.85;;;;;;;5.35;78.55;99510.63;1786825;79;21887;-73
2021/03/15 09:19:49;;;;;;;;;;;;;;;5.39;78.53;99510.77;1787374;79;21178;-73
2021/03/15 09:25:17;;;;;;;62.80;34.10;;;;;;;5.42;78.42;99501.39;1858326;76;29104;-73
2021/03/15 09:27:51;;;;;;;61.63;34.60;;;;;;;5.39;78.41;99505.52;1853872;77;21151;-74
2021/03/15 09:30:21;;;;;;;;;;;;;;;5.40;78.41;99513.73;1847092;77;21881;-74
2021/03/15 09:32:55;;;;;;;58.02;35.17;;;;;;;5.44;78.43;99509.97;1844612;77;20301;-74
2021/03/15 09:35:35;;;;;;;59.33;35.03;;;;;;;5.46;78.38;99514.14;1844359;77;21135;-75
2021/03/15 09:38:07;;;;;;;67.27;36.90;;;;;;;5.53;78.36;99510.63;1836842;77;21167;-74
2021/03/15 09:40:49;;;;;;;70.75;38.33;;;;;;;5.59;78.30;99520.63;1838465;77;21121;-72
2021/03/15 09:43:23;;;;;;;71.55;38.98;;;;;;;5.63;78.21;99518.65;1841207;77;22801;-71
2021/03/15 09:45:58;;;;;;;60.38;34.95;;;;;;;5.66;78.07;99521.87;1843820;77;21472;-73
2021/03/15 09:48:29;;;;;;;55.58;33.78;;;;;;;5.68;77.91;99522.59;1831667;77;21197;-73
2021/03/15 09:51:03;;;;;;;59.53;35.92;;;;;;;5.67;77.75;99519.61;1786775;79;21467;-72
2021/03/15 09:53:44;;;;;;;63.10;37.13;;;;;;;5.71;77.67;99517.15;1856666;75;29113;-70
2021/03/15 09:56:13;;;;;;;63.52;36.58;;;;;;;5.70;77.57;99518.58;1812279;78;21155;-71
2021/03/15 09:58:46;;;;;;;63.73;37.50;;;;;;;5.74;77.53;99514.30;1827097;78;22114;-70
2021/03/15 10:01:21;;;;;;;58.40;35.73;;;;;;;5.77;77.42;99522.39;1748299;79;21272;-70
2021/03/15 10:03:59;;;;;;;57.20;35.17;;;;;;;5.82;77.21;99515.52;1883830;74;29102;-72
2021/03/15 10:06:33;;;;;;;;;;;;;;;5.78;77.17;99517.98;1826164;76;21606;-71
2021/03/15 10:09:22;;;;;;;59.77;36.83;;;;;;;5.80;77.03;99518.27;1823536;77;20554;-72
2021/03/15 10:12:19;;;;;;;59.67;38.38;;;;;;;5.72;76.64;99520.60;1852735;76;21174;-74
2021/03/15 10:15:17;;;;;;;58.00;39.25;;;;;;;5.69;76.51;99509.88;1789250;77;29631;-75
2021/03/15 10:17:58;;;;;;;63.83;42.53;;;;;;;5.64;76.42;99509.84;1795449;78;21094;-74
2021/03/15 10:20:50;;;;;;;67.70;43.78;;;;;;;5.71;76.36;99511.91;1876540;75;29565;-73
2021/03/15 10:23:21;;;;;;;69.58;42.27;;;;;;;5.69;76.24;99513.81;1770296;80;21130;-72
2021/03/15 10:26:03;;;;;;;63.13;40.38;;;;;;;5.69;76.03;99515.56;1756615;81;22923;-74
2021/03/15 10:28:39;;;;;;;58.33;39.10;;;;;;;5.68;75.98;99510.80;1751619;80;21150;-74
2021/03/15 10:31:08;;;;;;;54.70;34.78;;;;;;;5.72;75.96;99504.87;1821462;77;21145;-73
2021/03/15 10:33:39;;;;;;;51.65;33.67;;;;;;;5.77;75.91;99500.59;1827212;77;21458;-74
2021/03/15 10:36:08;;;;;;;47.35;32.83;;;;;;;5.79;75.86;99500.88;1786093;77;21125;-75
2021/03/15 10:38:35;;;;;;;52.30;33.33;;;;;;;5.83;75.79;99501.47;1837602;77;22336;-74
2021/03/15 10:41:05;;;;;;;52.93;34.25;;;;;;;5.88;75.88;99496.70;1805356;77;21133;-75
2021/03/15 10:43:34;;;;;;;49.93;34.25;;;;;;;5.97;75.90;99495.58;1836684;77;21198;-73
2021/03/15 10:46:29;;;;;;;54.27;34.98;;;;;;;6.11;75.92;99484.56;1876606;76;30096;-75
2021/03/15 10:48:59;;;;;;;49.25;32.93;;;;;;;6.16;75.93;99485.88;1772543;80;21165;-75
2021/03/15 10:51:27;;;;;;;46.63;32.30;;;;;;;6.23;75.85;99488.88;1757047;80;22099;-75
2021/03/15 10:54:01;;;;;;;50.78;32.83;;;;;;;6.23;75.75;99484.47;1745670;81;21217;-74
2021/03/15 10:56:32;;;;;;;52.35;33.15;;;;;;;6.24;75.80;99478.74;1761324;80;21086;-75
2021/03/15 10:59:03;;;;;;;49.98;32.53;;;;;;;6.30;75.81;99484.84;1829670;77;21471;-72
2021/03/15 11:01:34;;;;;;;48.78;31.93;;;;;;;6.38;75.87;99477.71;1830702;77;21141;-74
2021/03/15 11:04:15;;;;;;;48.58;30.90;;;;;;;6.50;75.80;99476.29;1882154;76;29454;-74
2021/03/15 11:06:47;;;;;;;47.23;30.97;;;;;;;6.56;75.71;99482.83;1766131;80;21165;-74
2021/03/15 11:09:25;;;;;;;44.00;28.42;;;;;;;6.54;75.28;99484.75;1739928;82;21925;-74
2021/03/15 11:11:55;;;;;;;45.45;27.73;;;;;;;6.41;75.20;99478.30;1792632;79;21060;-74
2021/03/15 11:14:26;;;;;;;45.83;30.20;;;;;;;6.31;75.18;99483.41;1800273;79;21145;-75
2021/03/15 11:17:12;;;;;;;43.15;28.40;;;;;;;6.20;75.35;99468.97;1844228;77;21133;-74
2021/03/15 11:19:52;;;;;;;50.05;30.60;;;;;;;6.17;75.59;99470.49;1845941;77;21136;-74
2021/03/15 11:22:25;;;;;;;47.25;31.45;;;;;;;6.12;75.80;99470.02;1825465;77;22057;-74
2021/03/15 11:25:11;;;;;;;49.15;30.25;;;;;;;6.09;75.96;99466.33;1836319;77;21049;-74
2021/03/15 11:27:49;;;;;;;46.53;30.70;;;;;;;6.04;76.10;99467.14;1820802;77;21069;-75
2021/03/15 11:30:23;;;;;;;48.17;30.55;;;;;;;5.99;76.34;99466.66;1824305;77;21128;-74
2021/03/15 11:33:10;;;;;;;47.95;30.88;;;;;;;5.98;76.56;99447.48;1869941;75;22649;-75
2021/03/15 11:35:48;;;;;;;46.40;30.60;;;;;;;5.94;76.84;99435.54;1825043;77;21438;-75
2021/03/15 11:38:23;;;;;;;48.65;30.55;;;;;;;5.94;77.30;99436.85;1773430;80;22499;-76
2021/03/15 11:40:54;;;;;;;47.83;32.42;;;;;;;5.95;77.56;99457.34;1826244;77;21160;-74
2021/03/15 11:43:24;;;;;;;51.73;32.28;;;;;;;5.96;77.68;99456.39;1822469;77;21113;-72
2021/03/15 11:46:02;;;;;;;51.42;33.95;;;;;;;5.96;77.86;99449.83;1813341;77;21143;-74
2021/03/15 11:48:30;;;;;;;45.12;30.92;;;;;;;5.96;77.95;99445.42;1773776;80;21219;-74
2021/03/15 11:51:10;;;;;;;46.45;30.65;;;;;;;6.03;78.10;99445.33;1881649;76;29158;-76
2021/03/15 11:53:41;;;;;;;46.65;30.50;;;;;;;6.01;78.25;99438.55;1838643;77;21122;-75
2021/03/15 11:56:09;;;;;;;49.45;31.93;;;;;;;6.05;78.37;99436.03;1779367;79;22061;-74
2021/03/15 11:58:36;;;;;;;47.25;31.40;;;;;;;6.12;78.60;99424.14;1817768;77;21117;-76